sensor_id;sensor_type;location;lat;lon;timestamp;pressure;altitude;pressure_sealevel;temperature;humidity
59873;BME280;50750;51.636;4.948;2022-09-12T00:01:24;101837.49;;;22.77;54.68
59873;BME280;50750;51.636;4.948;2022-09-12T00:03:57;101836.98;;;22.77;54.74
59873;BME280;50750;51.636;4.948;2022-09-12T00:06:29;101830.25;;;22.76;54.82
59873;BME280;50750;51.636;4.948;2022-09-12T00:08:58;101827.07;;;22.75;54.77
59873;BME280;50750;51.636;4.948;2022-09-12T00:11:26;101827.96;;;22.75;54.70
59873;BME280;50750;51.636;4.948;2022-09-12T00:13:58;101829.11;;;22.74;54.69
59873;BME280;50750;51.636;4.948;2022-09-12T00:16:27;101831.75;;;22.75;54.71
59873;BME280;50750;51.636;4.948;2022-09-12T00:18:54;101827.52;;;22.74;54.78
59873;BME280;50750;51.636;4.948;2022-09-12T00:21:21;101829.86;;;22.74;54.69
59873;BME280;50750;51.636;4.948;2022-09-12T00:23:49;101826.89;;;22.72;54.70
59873;BME280;50750;51.636;4.948;2022-09-12T00:26:17;101828.86;;;22.72;54.75
59873;BME280;50750;51.636;4.948;2022-09-12T00:28:44;101827.61;;;22.72;54.69
59873;BME280;50750;51.636;4.948;2022-09-12T00:31:13;101825.34;;;22.71;54.75
59873;BME280;50750;51.636;4.948;2022-09-12T00:33:40;101824.10;;;22.71;54.77
59873;BME280;50750;51.636;4.948;2022-09-12T00:36:11;101820.20;;;22.71;54.66
59873;BME280;50750;51.636;4.948;2022-09-12T00:38:37;101815.58;;;22.71;54.81
59873;BME280;50750;51.636;4.948;2022-09-12T00:41:11;101813.25;;;22.71;54.63
59873;BME280;50750;51.636;4.948;2022-09-12T00:43:42;101809.34;;;22.70;54.60
59873;BME280;50750;51.636;4.948;2022-09-12T00:49:11;101803.30;;;22.70;54.57
59873;BME280;50750;51.636;4.948;2022-09-12T00:51:43;101798.49;;;22.70;54.61
59873;BME280;50750;51.636;4.948;2022-09-12T00:54:16;101796.35;;;22.70;54.58
59873;BME280;50750;51.636;4.948;2022-09-12T00:56:45;101797.59;;;22.70;54.60
59873;BME280;50750;51.636;4.948;2022-09-12T00:59:17;101794.92;;;22.70;54.47
59873;BME280;50750;51.636;4.948;2022-09-12T01:01:47;101792.98;;;22.69;54.61
59873;BME280;50750;51.636;4.948;2022-09-12T01:04:16;101790.88;;;22.69;54.65
59873;BME280;50750;51.636;4.948;2022-09-12T01:06:43;101790.14;;;22.69;54.52
59873;BME280;50750;51.636;4.948;2022-09-12T01:09:13;101788.59;;;22.68;54.43
59873;BME280;50750;51.636;4.948;2022-09-12T01:11:41;101786.81;;;22.68;54.51
59873;BME280;50750;51.636;4.948;2022-09-12T01:14:13;101783.98;;;22.68;54.48
59873;BME280;50750;51.636;4.948;2022-09-12T01:16:41;101785.25;;;22.68;54.56
59873;BME280;50750;51.636;4.948;2022-09-12T01:19:42;101778.83;;;22.67;54.49
59873;BME280;50750;51.636;4.948;2022-09-12T01:30:48;101781.62;;;22.66;54.56
59873;BME280;50750;51.636;4.948;2022-09-12T01:38:59;101770.46;;;22.65;54.49
59873;BME280;50750;51.636;4.948;2022-09-12T01:41:51;101775.14;;;22.64;54.28
59873;BME280;50750;51.636;4.948;2022-09-12T01:47:12;101769.31;;;22.63;54.54
59873;BME280;50750;51.636;4.948;2022-09-12T01:52:26;101762.40;;;22.63;54.36
59873;BME280;50750;51.636;4.948;2022-09-12T01:55:06;101763.84;;;22.62;54.34
59873;BME280;50750;51.636;4.948;2022-09-12T01:57:44;101759.60;;;22.62;54.49
59873;BME280;50750;51.636;4.948;2022-09-12T02:00:12;101756.77;;;22.61;54.37
59873;BME280;50750;51.636;4.948;2022-09-12T02:02:43;101752.14;;;22.61;54.31
59873;BME280;50750;51.636;4.948;2022-09-12T02:05:35;101748.77;;;22.60;54.33
59873;BME280;50750;51.636;4.948;2022-09-12T02:11:05;101746.50;;;22.60;54.40
59873;BME280;50750;51.636;4.948;2022-09-12T02:13:56;101747.02;;;22.60;54.29
59873;BME280;50750;51.636;4.948;2022-09-12T02:16:36;101745.61;;;22.60;54.44
59873;BME280;50750;51.636;4.948;2022-09-12T02:19:15;101742.77;;;22.60;54.38
59873;BME280;50750;51.636;4.948;2022-09-12T02:21:50;101741.95;;;22.58;54.35
59873;BME280;50750;51.636;4.948;2022-09-12T02:24:19;101742.11;;;22.59;54.24
59873;BME280;50750;51.636;4.948;2022-09-12T02:26:53;101737.89;;;22.58;54.25
59873;BME280;50750;51.636;4.948;2022-09-12T02:29:21;101734.54;;;22.57;54.33
59873;BME280;50750;51.636;4.948;2022-09-12T02:31:59;101732.56;;;22.58;54.32
59873;BME280;50750;51.636;4.948;2022-09-12T02:34:37;101728.52;;;22.56;54.43
59873;BME280;50750;51.636;4.948;2022-09-12T02:37:22;101731.89;;;22.57;54.28
59873;BME280;50750;51.636;4.948;2022-09-12T02:39:53;101726.20;;;22.57;54.40
59873;BME280;50750;51.636;4.948;2022-09-12T02:42:20;101725.35;;;22.56;54.28
59873;BME280;50750;51.636;4.948;2022-09-12T02:44:48;101720.75;;;22.56;54.28
59873;BME280;50750;51.636;4.948;2022-09-12T02:47:24;101724.02;;;22.55;54.35
59873;BME280;50750;51.636;4.948;2022-09-12T02:49:54;101721.35;;;22.54;54.30
59873;BME280;50750;51.636;4.948;2022-09-12T02:52:22;101721.91;;;22.54;54.36
59873;BME280;50750;51.636;4.948;2022-09-12T02:54:50;101721.06;;;22.53;54.29
59873;BME280;50750;51.636;4.948;2022-09-12T02:57:19;101719.11;;;22.53;54.23
59873;BME280;50750;51.636;4.948;2022-09-12T02:59:47;101717.52;;;22.53;54.32
59873;BME280;50750;51.636;4.948;2022-09-12T03:13:25;101701.96;;;22.51;54.37
59873;BME280;50750;51.636;4.948;2022-09-12T03:16:09;101699.64;;;22.50;54.22
59873;BME280;50750;51.636;4.948;2022-09-12T03:19:02;101700.00;;;22.50;54.34
59873;BME280;50750;51.636;4.948;2022-09-12T03:24:17;101691.72;;;22.49;54.41
59873;BME280;50750;51.636;4.948;2022-09-12T03:26:49;101696.52;;;22.49;54.28
59873;BME280;50750;51.636;4.948;2022-09-12T03:29:20;101696.88;;;22.49;54.27
59873;BME280;50750;51.636;4.948;2022-09-12T03:31:54;101697.07;;;22.49;54.25
59873;BME280;50750;51.636;4.948;2022-09-12T03:34:22;101697.45;;;22.48;54.22
59873;BME280;50750;51.636;4.948;2022-09-12T03:36:49;101692.61;;;22.49;54.39
59873;BME280;50750;51.636;4.948;2022-09-12T03:39:16;101690.69;;;22.48;54.28
59873;BME280;50750;51.636;4.948;2022-09-12T03:41:43;101690.16;;;22.48;54.15
59873;BME280;50750;51.636;4.948;2022-09-12T03:44:10;101690.35;;;22.48;54.22
59873;BME280;50750;51.636;4.948;2022-09-12T03:46:36;101689.62;;;22.48;54.25
59873;BME280;50750;51.636;4.948;2022-09-12T03:49:03;101689.11;;;22.48;54.23
59873;BME280;50750;51.636;4.948;2022-09-12T03:51:30;101688.95;;;22.47;54.24
59873;BME280;50750;51.636;4.948;2022-09-12T03:53:56;101688.45;;;22.47;54.21
59873;BME280;50750;51.636;4.948;2022-09-12T03:56:23;101683.46;;;22.47;54.25
59873;BME280;50750;51.636;4.948;2022-09-12T03:58:49;101678.50;;;22.47;54.14
59873;BME280;50750;51.636;4.948;2022-09-12T04:01:17;101675.47;;;22.46;54.30
59873;BME280;50750;51.636;4.948;2022-09-12T04:03:47;101672.30;;;22.46;54.18
59873;BME280;50750;51.636;4.948;2022-09-12T04:06:17;101671.43;;;22.45;54.24
59873;BME280;50750;51.636;4.948;2022-09-12T04:08:47;101671.06;;;22.45;54.27
59873;BME280;50750;51.636;4.948;2022-09-12T04:11:17;101667.35;;;22.45;54.26
59873;BME280;50750;51.636;4.948;2022-09-12T04:13:44;101665.23;;;22.45;54.25
59873;BME280;50750;51.636;4.948;2022-09-12T04:16:12;101665.81;;;22.44;54.14
59873;BME280;50750;51.636;4.948;2022-09-12T04:18:39;101667.08;;;22.44;54.16
59873;BME280;50750;51.636;4.948;2022-09-12T04:21:08;101671.73;;;22.44;54.27
59873;BME280;50750;51.636;4.948;2022-09-12T04:23:35;101667.98;;;22.44;54.16
59873;BME280;50750;51.636;4.948;2022-09-12T04:26:03;101666.01;;;22.44;54.35
59873;BME280;50750;51.636;4.948;2022-09-12T04:28:32;101663.40;;;22.43;54.16
59873;BME280;50750;51.636;4.948;2022-09-12T04:31:03;101659.67;;;22.43;54.21
59873;BME280;50750;51.636;4.948;2022-09-12T04:33:31;101659.70;;;22.42;54.17
59873;BME280;50750;51.636;4.948;2022-09-12T04:36:13;101656.29;;;22.42;54.33
59873;BME280;50750;51.636;4.948;2022-09-12T04:38:43;101651.86;;;22.42;54.26
59873;BME280;50750;51.636;4.948;2022-09-12T04:41:17;101649.91;;;22.42;54.23
59873;BME280;50750;51.636;4.948;2022-09-12T04:43:45;101652.79;;;22.42;54.20
59873;BME280;50750;51.636;4.948;2022-09-12T04:46:14;101653.66;;;22.42;54.26
59873;BME280;50750;51.636;4.948;2022-09-12T04:48:42;101649.21;;;22.42;54.28
59873;BME280;50750;51.636;4.948;2022-09-12T04:51:14;101649.42;;;22.41;54.21
59873;BME280;50750;51.636;4.948;2022-09-12T04:53:46;101650.30;;;22.41;54.18
59873;BME280;50750;51.636;4.948;2022-09-12T04:56:12;101657.46;;;22.41;54.12
59873;BME280;50750;51.636;4.948;2022-09-12T04:58:39;101656.77;;;22.41;54.16
59873;BME280;50750;51.636;4.948;2022-09-12T05:01:07;101653.02;;;22.41;54.15
59873;BME280;50750;51.636;4.948;2022-09-12T05:03:34;101653.21;;;22.40;54.09
59873;BME280;50750;51.636;4.948;2022-09-12T05:06:06;101656.28;;;22.40;54.12
59873;BME280;50750;51.636;4.948;2022-09-12T05:08:33;101654.17;;;22.39;54.13
59873;BME280;50750;51.636;4.948;2022-09-12T05:11:06;101653.14;;;22.39;54.19
59873;BME280;50750;51.636;4.948;2022-09-12T05:13:33;101653.21;;;22.38;54.20
59873;BME280;50750;51.636;4.948;2022-09-12T05:16:01;101661.46;;;22.37;54.14
59873;BME280;50750;51.636;4.948;2022-09-12T05:18:33;101657.63;;;22.36;54.07
59873;BME280;50750;51.636;4.948;2022-09-12T05:21:02;101655.14;;;22.36;54.18
59873;BME280;50750;51.636;4.948;2022-09-12T05:23:30;101656.93;;;22.36;54.20
59873;BME280;50750;51.636;4.948;2022-09-12T05:25:57;101661.42;;;22.35;54.12
59873;BME280;50750;51.636;4.948;2022-09-12T05:28:28;101656.61;;;22.35;54.13
59873;BME280;50750;51.636;4.948;2022-09-12T05:31:13;101661.27;;;22.35;54.09
59873;BME280;50750;51.636;4.948;2022-09-12T05:33:41;101664.14;;;22.34;54.04
59873;BME280;50750;51.636;4.948;2022-09-12T05:36:14;101666.52;;;22.34;54.15
59873;BME280;50750;51.636;4.948;2022-09-12T05:38:43;101666.48;;;22.34;54.14
59873;BME280;50750;51.636;4.948;2022-09-12T05:41:11;101666.67;;;22.34;54.08
59873;BME280;50750;51.636;4.948;2022-09-12T05:43:39;101664.05;;;22.33;54.11
59873;BME280;50750;51.636;4.948;2022-09-12T05:46:12;101660.70;;;22.33;54.18
59873;BME280;50750;51.636;4.948;2022-09-12T05:48:41;101664.80;;;22.33;54.00
59873;BME280;50750;51.636;4.948;2022-09-12T05:51:13;101666.23;;;22.33;54.18
59873;BME280;50750;51.636;4.948;2022-09-12T05:53:50;101665.55;;;22.33;54.08
59873;BME280;50750;51.636;4.948;2022-09-12T05:56:20;101660.74;;;22.32;54.18
59873;BME280;50750;51.636;4.948;2022-09-12T06:01:20;101664.50;;;22.32;54.13
59873;BME280;50750;51.636;4.948;2022-09-12T06:03:51;101664.19;;;22.31;54.15
59873;BME280;50750;51.636;4.948;2022-09-12T06:06:22;101663.87;;;22.31;54.22
59873;BME280;50750;51.636;4.948;2022-09-12T06:08:51;101665.67;;;22.31;54.28
59873;BME280;50750;51.636;4.948;2022-09-12T06:11:19;101663.36;;;22.31;54.05
59873;BME280;50750;51.636;4.948;2022-09-12T06:13:46;101663.20;;;22.30;54.18
59873;BME280;50750;51.636;4.948;2022-09-12T06:16:15;101665.20;;;22.29;54.12
59873;BME280;50750;51.636;4.948;2022-09-12T06:18:50;101665.25;;;22.28;54.29
59873;BME280;50750;51.636;4.948;2022-09-12T06:21:17;101664.04;;;22.28;54.14
59873;BME280;50750;51.636;4.948;2022-09-12T06:23:43;101663.01;;;22.27;54.05
59873;BME280;50750;51.636;4.948;2022-09-12T06:26:12;101658.92;;;22.27;54.16
59873;BME280;50750;51.636;4.948;2022-09-12T06:28:42;101660.16;;;22.27;54.22
59873;BME280;50750;51.636;4.948;2022-09-12T06:31:16;101661.06;;;22.27;54.24
59873;BME280;50750;51.636;4.948;2022-09-12T06:33:46;101663.40;;;22.27;54.29
59873;BME280;50750;51.636;4.948;2022-09-12T06:36:25;101662.70;;;22.27;54.14
59873;BME280;50750;51.636;4.948;2022-09-12T06:38:53;101663.42;;;22.26;54.16
59873;BME280;50750;51.636;4.948;2022-09-12T06:41:20;101663.08;;;22.26;54.09
59873;BME280;50750;51.636;4.948;2022-09-12T06:43:46;101665.82;;;22.25;54.06
59873;BME280;50750;51.636;4.948;2022-09-12T06:46:13;101664.59;;;22.25;54.16
59873;BME280;50750;51.636;4.948;2022-09-12T06:48:39;101664.25;;;22.25;54.23
59873;BME280;50750;51.636;4.948;2022-09-12T06:51:09;101668.55;;;22.24;54.23
59873;BME280;50750;51.636;4.948;2022-09-12T06:53:36;101670.17;;;22.24;54.18
59873;BME280;50750;51.636;4.948;2022-09-12T06:56:05;101667.65;;;22.25;54.29
59873;BME280;50750;51.636;4.948;2022-09-12T06:58:35;101669.63;;;22.24;54.16
59873;BME280;50750;51.636;4.948;2022-09-12T07:01:22;101668.91;;;22.24;54.31
59873;BME280;50750;51.636;4.948;2022-09-12T07:03:52;101666.80;;;22.24;54.22
59873;BME280;50750;51.636;4.948;2022-09-12T07:06:23;101665.73;;;22.24;54.17
59873;BME280;50750;51.636;4.948;2022-09-12T07:08:51;101656.45;;;22.24;54.26
59873;BME280;50750;51.636;4.948;2022-09-12T07:11:20;101653.43;;;22.24;54.16
59873;BME280;50750;51.636;4.948;2022-09-12T07:13:49;101654.85;;;22.24;54.13
59873;BME280;50750;51.636;4.948;2022-09-12T07:16:16;101652.36;;;22.24;54.27
59873;BME280;50750;51.636;4.948;2022-09-12T07:18:43;101653.58;;;22.24;54.30
59873;BME280;50750;51.636;4.948;2022-09-12T07:21:13;101659.30;;;22.24;54.30
59873;BME280;50750;51.636;4.948;2022-09-12T07:23:41;101658.23;;;22.24;54.21
59873;BME280;50750;51.636;4.948;2022-09-12T07:26:12;101658.95;;;22.24;54.22
59873;BME280;50750;51.636;4.948;2022-09-12T07:28:39;101660.21;;;22.24;54.25
59873;BME280;50750;51.636;4.948;2022-09-12T07:31:12;101661.46;;;22.24;54.10
59873;BME280;50750;51.636;4.948;2022-09-12T07:33:40;101660.39;;;22.24;54.40
59873;BME280;50750;51.636;4.948;2022-09-12T07:36:13;101660.03;;;22.24;54.23
59873;BME280;50750;51.636;4.948;2022-09-12T07:38:41;101657.52;;;22.24;54.37
59873;BME280;50750;51.636;4.948;2022-09-12T07:41:20;101655.58;;;22.24;54.23
59873;BME280;50750;51.636;4.948;2022-09-12T07:43:47;101656.98;;;22.24;54.22
59873;BME280;50750;51.636;4.948;2022-09-12T07:46:16;101656.11;;;22.24;54.20
59873;BME280;50750;51.636;4.948;2022-09-12T07:48:43;101663.74;;;22.24;54.09
59873;BME280;50750;51.636;4.948;2022-09-12T07:51:10;101667.13;;;22.24;54.22
59873;BME280;50750;51.636;4.948;2022-09-12T07:53:39;101661.97;;;22.24;54.24
59873;BME280;50750;51.636;4.948;2022-09-12T07:56:07;101663.21;;;22.24;54.34
59873;BME280;50750;51.636;4.948;2022-09-12T07:58:36;101663.39;;;22.24;54.27
59873;BME280;50750;51.636;4.948;2022-09-12T08:01:12;101667.48;;;22.24;54.22
59873;BME280;50750;51.636;4.948;2022-09-12T08:03:40;101671.95;;;22.24;54.27
59873;BME280;50750;51.636;4.948;2022-09-12T08:06:09;101670.34;;;22.25;54.14
59873;BME280;50750;51.636;4.948;2022-09-12T08:08:37;101668.56;;;22.24;54.38
59873;BME280;50750;51.636;4.948;2022-09-12T08:11:06;101671.96;;;22.24;54.21
59873;BME280;50750;51.636;4.948;2022-09-12T08:13:35;101672.14;;;22.24;54.24
59873;BME280;50750;51.636;4.948;2022-09-12T08:16:05;101676.08;;;22.24;54.19
59873;BME280;50750;51.636;4.948;2022-09-12T08:18:34;101672.29;;;22.24;54.25
59873;BME280;50750;51.636;4.948;2022-09-12T08:21:06;101672.48;;;22.24;54.36
59873;BME280;50750;51.636;4.948;2022-09-12T08:23:34;101678.52;;;22.25;54.36
59873;BME280;50750;51.636;4.948;2022-09-12T08:26:02;101678.88;;;22.25;54.38
59873;BME280;50750;51.636;4.948;2022-09-12T08:28:31;101675.80;;;22.25;54.50
59873;BME280;50750;51.636;4.948;2022-09-12T08:31:05;101674.34;;;22.26;54.29
59873;BME280;50750;51.636;4.948;2022-09-12T08:33:32;101672.37;;;22.26;54.29
59873;BME280;50750;51.636;4.948;2022-09-12T08:36:09;101670.91;;;22.26;54.40
59873;BME280;50750;51.636;4.948;2022-09-12T08:38:38;101671.39;;;22.27;54.35
59873;BME280;50750;51.636;4.948;2022-09-12T08:46:37;101663.14;;;22.28;54.47
59873;BME280;50750;51.636;4.948;2022-09-12T08:49:13;101662.95;;;22.28;54.36
59873;BME280;50750;51.636;4.948;2022-09-12T08:51:42;101662.38;;;22.29;54.46
59873;BME280;50750;51.636;4.948;2022-09-12T08:54:20;101664.48;;;22.30;54.43
59873;BME280;50750;51.636;4.948;2022-09-12T08:56:50;101666.41;;;22.30;54.48
59873;BME280;50750;51.636;4.948;2022-09-12T08:59:19;101661.75;;;22.31;54.40
59873;BME280;50750;51.636;4.948;2022-09-12T09:01:46;101662.81;;;22.30;54.31
59873;BME280;50750;51.636;4.948;2022-09-12T09:12:52;101657.70;;;22.32;54.53
59873;BME280;50750;51.636;4.948;2022-09-12T09:15:37;101655.20;;;22.32;54.45
59873;BME280;50750;51.636;4.948;2022-09-12T09:18:26;101646.43;;;22.33;54.51
59873;BME280;50750;51.636;4.948;2022-09-12T09:21:07;101644.95;;;22.34;54.48
59873;BME280;50750;51.636;4.948;2022-09-12T09:23:41;101640.98;;;22.34;54.38
59873;BME280;50750;51.636;4.948;2022-09-12T09:26:17;101641.13;;;22.35;54.52
59873;BME280;50750;51.636;4.948;2022-09-12T09:31:47;101641.79;;;22.36;54.53
59873;BME280;50750;51.636;4.948;2022-09-12T09:34:19;101635.84;;;22.37;54.55
59873;BME280;50750;51.636;4.948;2022-09-12T09:36:50;101635.58;;;22.38;54.51
59873;BME280;50750;51.636;4.948;2022-09-12T09:44:22;101626.84;;;22.40;54.34
59873;BME280;50750;51.636;4.948;2022-09-12T09:46:53;101620.73;;;22.41;54.43
59873;BME280;50750;51.636;4.948;2022-09-12T09:49:21;101620.52;;;22.41;54.44
59873;BME280;50750;51.636;4.948;2022-09-12T09:51:48;101621.56;;;22.42;54.49
59873;BME280;50750;51.636;4.948;2022-09-12T09:54:22;101621.34;;;22.42;54.53
59873;BME280;50750;51.636;4.948;2022-09-12T09:56:50;101616.51;;;22.42;54.46
59873;BME280;50750;51.636;4.948;2022-09-12T09:59:27;101616.63;;;22.43;54.45
59873;BME280;50750;51.636;4.948;2022-09-12T10:01:57;101613.25;;;22.43;54.46
59873;BME280;50750;51.636;4.948;2022-09-12T10:04:30;101614.61;;;22.44;54.32
59873;BME280;50750;51.636;4.948;2022-09-12T10:07:00;101616.88;;;22.45;54.37
59873;BME280;50750;51.636;4.948;2022-09-12T10:09:27;101614.53;;;22.45;54.37
59873;BME280;50750;51.636;4.948;2022-09-12T10:11:55;101614.88;;;22.45;54.45
59873;BME280;50750;51.636;4.948;2022-09-12T10:14:39;101609.70;;;22.45;54.29
59873;BME280;50750;51.636;4.948;2022-09-12T10:17:28;101603.24;;;22.45;54.37
59873;BME280;50750;51.636;4.948;2022-09-12T10:19:55;101593.07;;;22.45;54.40
59873;BME280;50750;51.636;4.948;2022-09-12T10:22:25;101598.02;;;22.46;54.48
59873;BME280;50750;51.636;4.948;2022-09-12T10:24:54;101591.21;;;22.47;54.27
59873;BME280;50750;51.636;4.948;2022-09-12T10:27:29;101580.67;;;22.47;54.38
59873;BME280;50750;51.636;4.948;2022-09-12T10:30:05;101580.59;;;22.48;54.38
59873;BME280;50750;51.636;4.948;2022-09-12T10:32:44;101576.27;;;22.48;54.28
59873;BME280;50750;51.636;4.948;2022-09-12T10:35:27;101571.24;;;22.49;54.31
59873;BME280;50750;51.636;4.948;2022-09-12T10:38:01;101565.90;;;22.49;54.24
59873;BME280;50750;51.636;4.948;2022-09-12T10:40:35;101558.91;;;22.49;54.33
59873;BME280;50750;51.636;4.948;2022-09-12T10:43:16;101558.52;;;22.50;54.33
59873;BME280;50750;51.636;4.948;2022-09-12T10:45:43;101555.11;;;22.50;54.45
59873;BME280;50750;51.636;4.948;2022-09-12T10:48:30;101557.21;;;22.50;54.27
59873;BME280;50750;51.636;4.948;2022-09-12T10:50:58;101552.14;;;22.52;54.40
59873;BME280;50750;51.636;4.948;2022-09-12T10:53:27;101552.27;;;22.53;54.35
59873;BME280;50750;51.636;4.948;2022-09-12T10:56:02;101547.73;;;22.54;54.25
59873;BME280;50750;51.636;4.948;2022-09-12T11:04:45;101542.77;;;22.56;54.22
59873;BME280;50750;51.636;4.948;2022-09-12T11:12:41;101540.19;;;22.57;54.41
59873;BME280;50750;51.636;4.948;2022-09-12T11:31:47;101549.99;;;22.62;54.27
59873;BME280;50750;51.636;4.948;2022-09-12T11:34:57;101546.36;;;22.63;54.34
59873;BME280;50750;51.636;4.948;2022-09-12T11:42:57;101537.59;;;22.66;54.28
59873;BME280;50750;51.636;4.948;2022-09-12T11:45:29;101536.30;;;22.66;54.24
59873;BME280;50750;51.636;4.948;2022-09-12T11:48:06;101536.41;;;22.67;54.21
59873;BME280;50750;51.636;4.948;2022-09-12T11:50:36;101531.75;;;22.68;54.19
59873;BME280;50750;51.636;4.948;2022-09-12T11:53:18;101530.80;;;22.68;54.27
59873;BME280;50750;51.636;4.948;2022-09-12T11:55:52;101530.01;;;22.70;54.30
59873;BME280;50750;51.636;4.948;2022-09-12T11:58:24;101531.04;;;22.70;54.41
59873;BME280;50750;51.636;4.948;2022-09-12T12:01:14;101530.80;;;22.71;54.20
59873;BME280;50750;51.636;4.948;2022-09-12T12:03:44;101525.20;;;22.72;54.26
59873;BME280;50750;51.636;4.948;2022-09-12T12:06:17;101528.36;;;22.73;54.20
59873;BME280;50750;51.636;4.948;2022-09-12T12:08:48;101529.21;;;22.73;54.15
59873;BME280;50750;51.636;4.948;2022-09-12T12:11:34;101525.40;;;22.74;54.12
59873;BME280;50750;51.636;4.948;2022-09-12T12:14:06;101518.73;;;22.75;54.13
59873;BME280;50750;51.636;4.948;2022-09-12T12:16:39;101513.69;;;22.76;54.28
59873;BME280;50750;51.636;4.948;2022-09-12T12:21:43;101510.48;;;22.78;54.29
59873;BME280;50750;51.636;4.948;2022-09-12T12:24:14;101508.63;;;22.79;54.18
59873;BME280;50750;51.636;4.948;2022-09-12T12:26:52;101504.28;;;22.80;54.33
59873;BME280;50750;51.636;4.948;2022-09-12T12:34:34;101500.39;;;22.82;54.43
59873;BME280;50750;51.636;4.948;2022-09-12T12:47:39;101503.48;;;22.86;54.42
59873;BME280;50750;51.636;4.948;2022-09-12T12:50:11;101492.15;;;22.87;54.34
59873;BME280;50750;51.636;4.948;2022-09-12T12:52:47;101481.95;;;22.88;54.28
59873;BME280;50750;51.636;4.948;2022-09-12T12:57:55;101475.40;;;22.89;54.49
59873;BME280;50750;51.636;4.948;2022-09-12T13:02:56;101466.55;;;22.90;54.29
59873;BME280;50750;51.636;4.948;2022-09-12T13:05:26;101464.18;;;22.91;54.26
59873;BME280;50750;51.636;4.948;2022-09-12T13:08:05;101467.15;;;22.92;54.14
59873;BME280;50750;51.636;4.948;2022-09-12T13:10:33;101464.05;;;22.93;54.25
59873;BME280;50750;51.636;4.948;2022-09-12T13:13:01;101462.38;;;22.94;54.29
59873;BME280;50750;51.636;4.948;2022-09-12T13:18:06;101455.51;;;22.95;54.32
59873;BME280;50750;51.636;4.948;2022-09-12T13:21:29;101452.24;;;22.96;54.27
59873;BME280;50750;51.636;4.948;2022-09-12T13:24:04;101438.63;;;22.97;54.34
59873;BME280;50750;51.636;4.948;2022-09-12T13:26:40;101439.45;;;22.98;54.34
59873;BME280;50750;51.636;4.948;2022-09-12T13:29:11;101436.33;;;22.99;54.24
59873;BME280;50750;51.636;4.948;2022-09-12T13:31:39;101437.19;;;22.99;54.38
59873;BME280;50750;51.636;4.948;2022-09-12T13:34:06;101436.42;;;23.00;54.49
59873;BME280;50750;51.636;4.948;2022-09-12T13:39:19;101428.05;;;23.02;54.36
59873;BME280;50750;51.636;4.948;2022-09-12T13:47:42;101428.62;;;23.04;54.54
59873;BME280;50750;51.636;4.948;2022-09-12T13:50:27;101431.76;;;23.05;54.44
59873;BME280;50750;51.636;4.948;2022-09-12T13:52:57;101433.30;;;23.06;54.44
59873;BME280;50750;51.636;4.948;2022-09-12T13:55:31;101428.08;;;23.07;54.47
59873;BME280;50750;51.636;4.948;2022-09-12T13:58:03;101424.62;;;23.07;54.35
59873;BME280;50750;51.636;4.948;2022-09-12T14:00:32;101418.67;;;23.08;54.45
59873;BME280;50750;51.636;4.948;2022-09-12T14:03:00;101411.09;;;23.09;54.36
59873;BME280;50750;51.636;4.948;2022-09-12T14:05:54;101397.96;;;23.10;54.51
59873;BME280;50750;51.636;4.948;2022-09-12T14:08:22;101395.95;;;23.11;54.48
59873;BME280;50750;51.636;4.948;2022-09-12T14:10:50;101388.23;;;23.12;54.50
59873;BME280;50750;51.636;4.948;2022-09-12T14:13:22;101384.77;;;23.12;54.49
59873;BME280;50750;51.636;4.948;2022-09-12T14:15:52;101383.77;;;23.14;54.36
59873;BME280;50750;51.636;4.948;2022-09-12T14:18:28;101378.23;;;23.14;54.47
59873;BME280;50750;51.636;4.948;2022-09-12T14:21:36;101376.02;;;23.15;54.57
59873;BME280;50750;51.636;4.948;2022-09-12T14:24:05;101373.44;;;23.16;54.53
59873;BME280;50750;51.636;4.948;2022-09-12T14:26:35;101376.39;;;23.17;54.64
59873;BME280;50750;51.636;4.948;2022-09-12T14:29:06;101378.27;;;23.18;54.48
59873;BME280;50750;51.636;4.948;2022-09-12T14:31:35;101378.93;;;23.19;54.58
59873;BME280;50750;51.636;4.948;2022-09-12T14:34:16;101378.44;;;23.21;54.54
59873;BME280;50750;51.636;4.948;2022-09-12T14:36:52;101370.73;;;23.21;54.51
59873;BME280;50750;51.636;4.948;2022-09-12T14:42:22;101362.03;;;23.23;54.65
59873;BME280;50750;51.636;4.948;2022-09-12T14:44:57;101368.03;;;23.24;54.68
59873;BME280;50750;51.636;4.948;2022-09-12T14:47:27;101376.35;;;23.25;54.63
59873;BME280;50750;51.636;4.948;2022-09-12T14:50:01;101371.84;;;23.25;54.71
59873;BME280;50750;51.636;4.948;2022-09-12T14:52:31;101368.55;;;23.26;54.61
59873;BME280;50750;51.636;4.948;2022-09-12T14:55:03;101365.80;;;23.27;54.77
59873;BME280;50750;51.636;4.948;2022-09-12T14:57:33;101364.52;;;23.28;54.65
59873;BME280;50750;51.636;4.948;2022-09-12T15:02:40;101364.05;;;23.29;54.71
59873;BME280;50750;51.636;4.948;2022-09-12T15:07:35;101357.13;;;23.31;54.72
59873;BME280;50750;51.636;4.948;2022-09-12T15:10:20;101359.58;;;23.31;54.68
59873;BME280;50750;51.636;4.948;2022-09-12T15:12:48;101359.70;;;23.32;54.69
59873;BME280;50750;51.636;4.948;2022-09-12T15:15:19;101360.59;;;23.32;54.73
59873;BME280;50750;51.636;4.948;2022-09-12T15:17:46;101363.05;;;23.33;54.80
59873;BME280;50750;51.636;4.948;2022-09-12T15:20:13;101357.59;;;23.34;54.79
59873;BME280;50750;51.636;4.948;2022-09-12T15:22:40;101351.67;;;23.34;55.12
59873;BME280;50750;51.636;4.948;2022-09-12T15:25:09;101352.89;;;23.34;54.98
59873;BME280;50750;51.636;4.948;2022-09-12T15:27:36;101349.98;;;23.35;54.86
59873;BME280;50750;51.636;4.948;2022-09-12T15:30:07;101347.08;;;23.36;54.92
59873;BME280;50750;51.636;4.948;2022-09-12T15:32:35;101350.92;;;23.37;54.78
59873;BME280;50750;51.636;4.948;2022-09-12T15:35:02;101350.14;;;23.38;54.75